Aérodrome :
LOGIN :

S'inscrire | Disclaimer

   EN    FR    IT 

 










Légende :    VFR   VFR Marginal   IFR   IFR Intensif   IFR Très Intensif
Visi : 
Plafond : 
>= 8 km
>= 3000ft
5 à 8 km
1000 à 3000 ft
1500m à 5 km
500 à 1000 ft
800 à 1500m
200 à 500 ft
< 800m
< 200 ft
Symboles :   Orages  Brouillard  Fortes neiges  Fortes précipitations  Vent > 20 kt
SIGMETs :   Divers  Orages  Givrage  Turbulence  Onde Orograph.  Cendres Volcan.






- Altitude de l'aérodrome : 79 ft
- Code IATA : NSY


LICZ - Sigonella (Mil) Catania

DERNIER METAR :
  • 222255Z 29004KT CAVOK 13/12 Q1016 RMK SKC VIS MIN 9999 WIND THR28 24003KT WIND THR10 /////KT A3002 BLU

METARs EXPIRÉS :
  • 222155Z 29007KT CAVOK 13/12 Q1016
  • 222055Z 25005KT 9999 FEW130 13/12 Q1016
  • 221955Z 26002KT CAVOK 13/13 Q1016 RMK BKN BKN180 VIS MIN 9999 WIND THR28 26003KT WIND THR10 /////KT A3001 BLU

TAF TAF LICZ
Valide du 22 à 18h jusqu'au 23 à 18h UTC


221700Z 2218/2318 27008KT 9999 SCT025
TEMPO 2301/2305 5000 BR
TEMPO 2312/2318 13015KT 8000 RA SCT030 SCT080



MET'MAP, la Météo Aéronautique d'un coup d'oeil ! - Copyright ORBIFLY Décembre 2007 - Disclaimer

ORBIFLY MET'MAP TEAM :

Programmation & Développement : Alexandra Zaïnal
Conception & Développement : Baudouin d'Aumeries
Co-Programmation & Développement : Marc-Olivier Méhu
Soutien technique & logistique : Manuel Goepfert

Contact : metmap@orbifly.com




SOURCES & CREDITS :

   NOAA